Time;durP1;ratioP1;P1;durP2;ratioP2;P2;SDS_P1;SDS_P2;PMS_P1;PMS_P2;Temp;Humidity;BMP_temperature;BMP_pressure;BME280_temperature;BME280_humidity;BME280_pressure;Samples;Min_cycle;Max_cycle;Signal;HPM_P1;HPM_P2
2022/07/06 00:02:20;;;;;;;0.00;0.00;;;15.60;74.80;;;;;;5051663;28;20041;-72
2022/07/06 00:04:46;;;;;;;0.00;0.00;;;15.60;74.80;;;;;;5054574;28;20494;-72
2022/07/06 00:07:13;;;;;;;0.00;0.00;;;15.60;74.80;;;;;;5063593;28;20044;-72
2022/07/06 00:09:40;;;;;;;0.00;0.00;;;15.60;74.70;;;;;;5058047;28;20410;-72
2022/07/06 00:12:06;;;;;;;0.00;0.00;;;15.60;74.50;;;;;;5051740;28;20041;-72
2022/07/06 00:14:31;;;;;;;0.00;0.00;;;15.70;74.60;;;;;;5052586;28;20547;-72
2022/07/06 00:16:58;;;;;;;0.00;0.00;;;15.70;74.60;;;;;;5051482;28;20072;-72
2022/07/06 00:19:24;;;;;;;0.00;0.00;;;15.70;74.60;;;;;;5051563;28;20509;-72
2022/07/06 00:21:49;;;;;;;0.00;0.00;;;15.60;74.60;;;;;;5061413;28;20057;-72
2022/07/06 00:24:17;;;;;;;0.00;0.00;;;15.60;74.40;;;;;;5058617;28;20041;-72
2022/07/06 00:26:44;;;;;;;0.00;0.00;;;15.60;74.30;;;;;;5051672;28;20802;-72
2022/07/06 00:29:09;;;;;;;0.00;0.00;;;15.60;74.10;;;;;;5051348;28;20148;-72
2022/07/06 00:31:35;;;;;;;0.00;0.00;;;15.60;74.10;;;;;;5051371;28;20131;-72
2022/07/06 00:34:00;;;;;;;0.00;0.00;;;15.60;74.00;;;;;;5056690;28;20047;-72
2022/07/06 00:36:27;;;;;;;0.00;0.00;;;15.60;73.90;;;;;;5050826;28;20094;-72
2022/07/06 00:38:52;;;;;;;0.00;0.00;;;15.50;73.90;;;;;;5051405;28;20052;-71
2022/07/06 00:41:18;;;;;;;0.00;0.00;;;15.50;74.20;;;;;;5049791;28;20375;-72
2022/07/06 00:43:55;;;;;;;0.00;0.00;;;15.50;74.20;;;;;;5057427;28;20032;-72
2022/07/06 00:46:30;;;;;;;0.00;0.00;;;15.50;74.10;;;;;;5068115;28;20049;-72
2022/07/06 00:48:56;;;;;;;0.00;0.00;;;15.50;73.70;;;;;;5062181;28;20079;-72
2022/07/06 00:51:30;;;;;;;0.00;0.00;;;15.50;73.80;;;;;;5050304;28;20045;-72
2022/07/06 00:53:59;;;;;;;0.00;0.00;;;15.50;73.80;;;;;;5056779;28;20795;-72
2022/07/06 00:56:26;;;;;;;0.00;0.00;;;15.60;73.70;;;;;;5051766;28;20493;-72
2022/07/06 00:58:52;;;;;;;0.00;0.00;;;15.50;73.60;;;;;;5050911;28;20163;-72
2022/07/06 01:01:17;;;;;;;0.00;0.00;;;15.50;73.60;;;;;;5061173;28;20044;-72
2022/07/06 01:03:43;;;;;;;0.00;0.00;;;15.50;73.50;;;;;;5068519;28;20041;-72
2022/07/06 01:06:08;;;;;;;0.00;0.00;;;15.50;73.40;;;;;;5052117;28;20041;-72
2022/07/06 01:08:34;;;;;;;0.00;0.00;;;15.50;73.40;;;;;;5050847;28;20040;-72
2022/07/06 01:11:00;;;;;;;0.00;0.00;;;15.60;73.50;;;;;;5049772;28;20051;-72
2022/07/06 01:13:27;;;;;;;0.00;0.00;;;15.60;73.40;;;;;;5057885;28;20123;-72
2022/07/06 01:15:53;;;;;;;0.00;0.00;;;15.60;73.40;;;;;;5059077;28;20053;-72
2022/07/06 01:18:19;;;;;;;0.00;0.00;;;15.60;73.20;;;;;;5050008;28;20063;-72
2022/07/06 01:20:45;;;;;;;0.00;0.00;;;15.60;73.10;;;;;;5059182;28;20499;-72
2022/07/06 01:23:10;;;;;;;0.00;0.00;;;15.60;73.10;;;;;;5053872;28;20037;-72
2022/07/06 01:25:36;;;;;;;0.00;0.00;;;15.60;73.10;;;;;;5051557;28;20045;-72
2022/07/06 01:28:02;;;;;;;0.00;0.00;;;15.50;73.30;;;;;;5054789;28;20524;-72
2022/07/06 01:30:28;;;;;;;0.00;0.00;;;15.60;73.40;;;;;;5058932;28;20098;-72
2022/07/06 01:32:53;;;;;;;0.00;0.00;;;15.50;73.30;;;;;;5053694;28;20493;-72
2022/07/06 01:35:19;;;;;;;0.00;0.00;;;15.50;73.60;;;;;;5060434;28;20048;-72
2022/07/06 01:37:45;;;;;;;0.52;0.52;;;15.50;73.60;;;;;;5059442;28;20051;-72
2022/07/06 01:40:11;;;;;;;0.00;0.00;;;15.40;73.70;;;;;;5067368;28;20048;-72
2022/07/06 01:42:38;;;;;;;0.00;0.00;;;15.40;73.40;;;;;;5065528;28;20036;-72
2022/07/06 01:45:05;;;;;;;0.00;0.00;;;15.40;73.60;;;;;;5067328;28;20501;-72
2022/07/06 01:47:30;;;;;;;0.20;0.20;;;15.40;73.50;;;;;;5048573;28;20041;-72
2022/07/06 01:50:00;;;;;;;0.00;0.00;;;15.40;73.30;;;;;;5049235;28;20452;-72
2022/07/06 01:52:27;;;;;;;0.00;0.00;;;15.30;73.00;;;;;;5050499;28;20113;-72
2022/07/06 01:54:53;;;;;;;0.05;0.05;;;15.30;73.10;;;;;;5068792;28;20709;-72
2022/07/06 01:57:18;;;;;;;0.05;0.05;;;15.30;72.50;;;;;;5059045;28;20079;-72
2022/07/06 01:59:44;;;;;;;0.00;0.00;;;15.30;72.70;;;;;;5068056;28;20045;-72
2022/07/06 02:02:09;;;;;;;0.00;0.00;;;15.30;72.60;;;;;;5053186;28;20159;-72
2022/07/06 02:04:35;;;;;;;0.00;0.00;;;15.40;72.70;;;;;;5049395;28;20403;-72
2022/07/06 02:07:01;;;;;;;0.00;0.00;;;15.40;72.70;;;;;;5048921;28;20041;-72
2022/07/06 02:09:27;;;;;;;0.00;0.00;;;15.50;72.70;;;;;;5049225;28;20044;-72
2022/07/06 02:11:52;;;;;;;0.00;0.00;;;15.50;72.90;;;;;;5049704;28;20501;-72
2022/07/06 02:14:18;;;;;;;0.00;0.00;;;15.50;73.00;;;;;;5049301;28;20105;-72
2022/07/06 02:16:43;;;;;;;0.00;0.00;;;15.50;72.90;;;;;;5049315;28;20033;-72
2022/07/06 02:19:09;;;;;;;0.00;0.00;;;15.50;72.90;;;;;;5049650;28;20040;-72
2022/07/06 02:21:35;;;;;;;0.00;0.00;;;15.50;73.40;;;;;;5051978;28;20049;-72
2022/07/06 02:24:00;;;;;;;0.05;0.05;;;15.50;73.40;;;;;;5060373;28;20049;-72
2022/07/06 02:26:26;;;;;;;0.00;0.00;;;15.50;73.80;;;;;;5056070;28;20130;-72
2022/07/06 02:28:52;;;;;;;0.00;0.00;;;15.50;74.10;;;;;;5064249;28;20166;-72
2022/07/06 02:31:17;;;;;;;0.00;0.00;;;15.40;74.10;;;;;;5057603;28;20140;-72
2022/07/06 02:33:43;;;;;;;0.00;0.00;;;15.40;74.40;;;;;;5059164;28;20051;-72
2022/07/06 02:36:08;;;;;;;0.00;0.00;;;15.30;74.30;;;;;;5066679;28;20049;-72
2022/07/06 02:38:34;;;;;;;0.00;0.00;;;15.40;74.40;;;;;;5048990;28;20037;-71
2022/07/06 02:41:00;;;;;;;0.00;0.00;;;15.20;74.30;;;;;;5065141;28;20036;-72
2022/07/06 02:43:25;;;;;;;0.00;0.00;;;15.20;74.50;;;;;;5050267;28;20041;-72
2022/07/06 02:45:51;;;;;;;0.00;0.00;;;15.20;74.60;;;;;;5048942;28;20033;-72
2022/07/06 02:48:19;;;;;;;0.00;0.00;;;15.10;74.40;;;;;;5048753;28;20455;-72
2022/07/06 02:50:44;;;;;;;0.00;0.00;;;15.10;74.30;;;;;;5048460;28;20037;-72
2022/07/06 02:53:10;;;;;;;0.00;0.00;;;15.20;74.30;;;;;;5050033;28;20040;-72
2022/07/06 02:55:36;;;;;;;0.00;0.00;;;15.20;74.20;;;;;;5056538;28;21090;-72
2022/07/06 02:58:01;;;;;;;0.10;0.10;;;15.20;74.20;;;;;;5048361;28;20500;-71
2022/07/06 03:00:27;;;;;;;0.00;0.00;;;15.20;73.80;;;;;;5064958;28;20048;-72
2022/07/06 03:02:52;;;;;;;0.00;0.00;;;15.20;73.60;;;;;;5049328;28;20052;-72
2022/07/06 03:05:18;;;;;;;0.00;0.00;;;15.20;73.60;;;;;;5061242;28;20048;-72
2022/07/06 03:07:43;;;;;;;0.00;0.00;;;15.20;73.20;;;;;;5048904;28;20168;-72
2022/07/06 03:10:09;;;;;;;0.00;0.00;;;15.20;72.70;;;;;;5048589;28;20878;-71
2022/07/06 03:12:35;;;;;;;0.03;0.03;;;15.10;72.40;;;;;;5049684;28;20047;-72
2022/07/06 03:15:00;;;;;;;0.08;0.08;;;15.10;72.30;;;;;;5048949;28;20053;-72
2022/07/06 03:17:26;;;;;;;0.00;0.00;;;15.10;72.40;;;;;;5048135;28;20037;-72
2022/07/06 03:19:52;;;;;;;1.35;0.98;;;15.00;72.50;;;;;;5048724;28;20537;-71
2022/07/06 03:22:18;;;;;;;0.00;0.00;;;15.10;72.40;;;;;;5057510;28;20044;-72
2022/07/06 03:24:44;;;;;;;0.00;0.00;;;15.00;72.40;;;;;;5060424;28;20481;-71
2022/07/06 03:27:09;;;;;;;0.00;0.00;;;15.00;72.80;;;;;;5056372;28;20044;-71
2022/07/06 03:29:35;;;;;;;0.00;0.00;;;15.10;72.90;;;;;;5048710;28;20434;-71
2022/07/06 03:32:01;;;;;;;0.00;0.00;;;15.00;73.10;;;;;;5047968;28;20052;-71
2022/07/06 03:34:26;;;;;;;0.00;0.00;;;15.00;73.20;;;;;;5049515;28;20055;-71
2022/07/06 03:36:52;;;;;;;0.00;0.00;;;15.00;73.20;;;;;;5048692;28;20382;-71
2022/07/06 03:39:17;;;;;;;0.00;0.00;;;15.00;73.20;;;;;;5048343;28;20056;-71
2022/07/06 03:41:43;;;;;;;0.00;0.00;;;15.00;73.40;;;;;;5053650;28;20044;-71
2022/07/06 03:44:09;;;;;;;0.00;0.00;;;15.10;73.40;;;;;;5057932;28;20037;-71
2022/07/06 03:46:34;;;;;;;0.00;0.00;;;15.10;73.20;;;;;;5051079;28;20171;-71
2022/07/06 03:49:00;;;;;;;0.00;0.00;;;14.90;73.10;;;;;;5053739;28;20513;-71
2022/07/06 03:51:25;;;;;;;0.00;0.00;;;14.90;73.30;;;;;;5052205;28;20053;-71
2022/07/06 03:53:51;;;;;;;0.00;0.00;;;14.90;73.30;;;;;;5051954;28;20040;-71
2022/07/06 03:56:29;;;;;;;0.00;0.00;;;14.80;73.30;;;;;;5051633;28;20074;-71
2022/07/06 03:58:56;;;;;;;0.00;0.00;;;14.80;73.20;;;;;;5051789;28;20040;-69
2022/07/06 04:01:21;;;;;;;0.00;0.00;;;14.80;73.30;;;;;;5051145;28;20053;-70
2022/07/06 04:03:47;;;;;;;0.00;0.00;;;14.70;73.20;;;;;;5049838;28;20742;-71
2022/07/06 04:06:13;;;;;;;0.00;0.00;;;14.60;73.20;;;;;;5055919;28;20037;-70
2022/07/06 04:08:39;;;;;;;5.25;0.70;;;14.60;73.30;;;;;;5054361;28;20029;-72
2022/07/06 04:11:04;;;;;;;0.00;0.00;;;14.50;73.10;;;;;;5052125;28;20596;-72
2022/07/06 04:13:30;;;;;;;0.00;0.00;;;14.50;73.60;;;;;;5063156;28;20045;-72
2022/07/06 04:15:56;;;;;;;0.05;0.05;;;14.40;73.60;;;;;;5051893;28;20079;-72
2022/07/06 04:18:21;;;;;;;0.00;0.00;;;14.30;73.60;;;;;;5051221;28;20069;-72
2022/07/06 04:20:47;;;;;;;0.00;0.00;;;14.30;73.80;;;;;;5051439;28;20041;-72
2022/07/06 04:23:13;;;;;;;0.00;0.00;;;14.30;73.90;;;;;;5050513;28;20037;-72
2022/07/06 04:25:38;;;;;;;0.00;0.00;;;14.30;74.00;;;;;;5051714;28;20111;-72
2022/07/06 04:28:04;;;;;;;0.00;0.00;;;14.30;73.80;;;;;;5054587;28;20834;-72
2022/07/06 04:30:30;;;;;;;0.00;0.00;;;14.30;73.80;;;;;;5051227;28;20095;-72
2022/07/06 04:32:55;;;;;;;0.00;0.00;;;14.30;74.00;;;;;;5052210;28;20095;-72
2022/07/06 04:35:21;;;;;;;0.00;0.00;;;14.30;73.70;;;;;;5051845;28;20118;-73
2022/07/06 04:37:47;;;;;;;0.00;0.00;;;14.30;74.00;;;;;;5056093;28;20497;-73
2022/07/06 04:40:14;;;;;;;0.00;0.00;;;14.40;74.00;;;;;;5050446;28;20524;-72
2022/07/06 04:42:40;;;;;;;0.00;0.00;;;14.30;74.00;;;;;;5045550;28;20094;-72
2022/07/06 04:45:06;;;;;;;0.00;0.00;;;14.40;74.10;;;;;;5049871;28;20049;-73
2022/07/06 04:47:32;;;;;;;0.00;0.00;;;14.50;73.90;;;;;;5049957;28;20044;-73
2022/07/06 04:49:57;;;;;;;0.00;0.00;;;14.50;74.00;;;;;;5042156;28;20042;-72
2022/07/06 04:52:23;;;;;;;0.00;0.00;;;14.50;74.10;;;;;;5047403;28;20048;-72
2022/07/06 04:54:48;;;;;;;0.00;0.00;;;14.50;74.30;;;;;;5049829;28;20091;-72
2022/07/06 04:57:14;;;;;;;0.00;0.00;;;14.50;74.30;;;;;;5049908;28;20033;-72
2022/07/06 04:59:40;;;;;;;0.00;0.00;;;14.40;74.50;;;;;;5049129;28;20055;-73
2022/07/06 05:02:05;;;;;;;0.00;0.00;;;14.50;74.90;;;;;;5045916;28;20863;-73
2022/07/06 05:04:31;;;;;;;0.00;0.00;;;14.50;75.20;;;;;;5049212;28;20063;-72
2022/07/06 05:06:57;;;;;;;0.00;0.00;;;14.50;75.30;;;;;;5049934;28;20088;-72
2022/07/06 05:09:23;;;;;;;0.00;0.00;;;14.60;75.30;;;;;;5046699;28;20766;-72
2022/07/06 05:11:48;;;;;;;0.00;0.00;;;14.60;75.20;;;;;;5050180;28;20402;-73
2022/07/06 05:14:14;;;;;;;0.00;0.00;;;14.60;75.20;;;;;;5039610;28;20564;-72
2022/07/06 05:16:39;;;;;;;0.00;0.00;;;14.60;75.20;;;;;;5049593;28;20044;-72
2022/07/06 05:19:05;;;;;;;0.00;0.00;;;14.70;75.00;;;;;;5051092;28;20048;-73
2022/07/06 05:21:31;;;;;;;0.00;0.00;;;14.80;74.70;;;;;;5026857;28;20044;-72
2022/07/06 05:23:56;;;;;;;0.00;0.00;;;14.80;74.50;;;;;;5048889;28;20095;-72
2022/07/06 05:26:22;;;;;;;0.00;0.00;;;14.80;74.80;;;;;;5049571;28;20056;-72
2022/07/06 05:28:48;;;;;;;7.32;0.95;;;14.80;74.90;;;;;;5048041;28;20048;-72
2022/07/06 05:31:14;;;;;;;0.00;0.00;;;14.90;75.10;;;;;;5035556;28;20517;-72
2022/07/06 05:33:40;;;;;;;0.00;0.00;;;14.90;75.30;;;;;;5049336;28;20083;-72
2022/07/06 05:36:05;;;;;;;0.00;0.00;;;14.90;75.40;;;;;;5042773;28;20721;-72
2022/07/06 05:38:31;;;;;;;0.00;0.00;;;15.00;75.50;;;;;;5048670;28;20127;-72
2022/07/06 05:40:57;;;;;;;0.00;0.00;;;15.10;75.60;;;;;;5052088;28;20187;-72
2022/07/06 05:43:23;;;;;;;0.00;0.00;;;15.10;75.60;;;;;;5048732;28;20040;-72
2022/07/06 05:45:48;;;;;;;0.00;0.00;;;15.30;75.70;;;;;;5031083;28;20068;-72
2022/07/06 05:50:59;;;;;;;0.00;0.00;;;15.30;75.50;;;;;;5048678;28;20139;-72
2022/07/06 05:53:24;;;;;;;0.00;0.00;;;15.40;75.20;;;;;;5048521;28;20061;-72
2022/07/06 05:55:50;;;;;;;0.00;0.00;;;15.40;73.70;;;;;;5047890;28;20178;-72
2022/07/06 05:58:16;;;;;;;0.00;0.00;;;15.40;72.70;;;;;;5048874;28;20048;-74
2022/07/06 06:00:41;;;;;;;0.00;0.00;;;15.30;72.70;;;;;;5047929;28;20118;-73
2022/07/06 06:03:07;;;;;;;0.00;0.00;;;15.40;72.60;;;;;;5048598;28;20055;-72
2022/07/06 06:05:32;;;;;;;0.00;0.00;;;15.30;72.90;;;;;;5047051;28;20057;-74
2022/07/06 06:07:58;;;;;;;0.00;0.00;;;15.30;73.10;;;;;;5047674;28;20040;-72
2022/07/06 06:10:24;;;;;;;0.05;0.05;;;15.30;72.90;;;;;;5047258;28;20044;-73
2022/07/06 06:12:50;;;;;;;0.00;0.00;;;15.30;73.50;;;;;;5047790;28;20503;-71
2022/07/06 06:15:17;;;;;;;0.00;0.00;;;15.40;73.60;;;;;;5048235;28;20509;-72
2022/07/06 06:17:43;;;;;;;0.17;0.17;;;15.40;73.70;;;;;;5049357;28;20041;-71
2022/07/06 06:20:11;;;;;;;0.00;0.00;;;15.40;72.70;;;;;;5047970;28;20061;-70
2022/07/06 06:22:46;;;;;;;0.00;0.00;;;15.50;72.60;;;;;;5048255;28;20053;-69
2022/07/06 06:25:16;;;;;;;0.00;0.00;;;15.50;72.90;;;;;;5048222;28;20067;-69
2022/07/06 06:27:41;;;;;;;0.00;0.00;;;15.60;73.30;;;;;;5049024;28;20517;-68
2022/07/06 06:30:08;;;;;;;0.00;0.00;;;15.70;72.40;;;;;;5048612;28;20081;-66
2022/07/06 06:32:34;;;;;;;0.00;0.00;;;15.80;72.00;;;;;;5049115;28;20106;-67
2022/07/06 06:34:59;;;;;;;0.00;0.00;;;15.90;71.30;;;;;;5048671;28;20045;-67
2022/07/06 06:37:25;;;;;;;0.00;0.00;;;16.00;71.40;;;;;;5048637;28;20401;-67
2022/07/06 06:39:50;;;;;;;0.00;0.00;;;16.00;71.10;;;;;;5047026;28;20051;-67
2022/07/06 06:42:16;;;;;;;0.00;0.00;;;16.00;71.40;;;;;;5048657;28;20775;-68
2022/07/06 06:44:41;;;;;;;0.00;0.00;;;16.10;70.90;;;;;;5048387;28;20036;-68
2022/07/06 06:47:07;;;;;;;0.00;0.00;;;16.10;70.30;;;;;;5059576;28;20044;-67
2022/07/06 06:49:33;;;;;;;0.00;0.00;;;16.10;70.30;;;;;;5047054;28;20103;-67
2022/07/06 06:51:58;;;;;;;0.00;0.00;;;16.20;70.40;;;;;;5048380;28;20101;-67
2022/07/06 06:54:24;;;;;;;0.00;0.00;;;16.20;70.50;;;;;;5048743;28;20044;-67
2022/07/06 06:56:49;;;;;;;0.00;0.00;;;16.30;68.60;;;;;;5047894;28;20037;-67
2022/07/06 06:59:15;;;;;;;0.00;0.00;;;16.30;68.70;;;;;;5038490;28;20045;-66
2022/07/06 07:01:40;;;;;;;0.00;0.00;;;16.30;69.20;;;;;;5026785;28;20120;-67
2022/07/06 07:04:06;;;;;;;0.00;0.00;;;16.40;68.40;;;;;;5026566;28;20059;-66
2022/07/06 07:06:32;;;;;;;0.00;0.00;;;16.40;68.10;;;;;;5023010;28;20041;-66
2022/07/06 07:08:58;;;;;;;0.30;0.30;;;16.40;67.30;;;;;;5023701;28;20059;-66
2022/07/06 07:11:24;;;;;;;0.13;0.13;;;16.40;66.60;;;;;;5026587;28;20095;-66
2022/07/06 07:13:49;;;;;;;0.00;0.00;;;16.40;66.80;;;;;;5034221;28;20045;-65
2022/07/06 07:16:15;;;;;;;0.00;0.00;;;16.40;65.30;;;;;;5002530;23;20054;-65
2022/07/06 07:18:41;;;;;;;0.00;0.00;;;16.40;65.10;;;;;;4979379;28;20199;-65
2022/07/06 07:21:06;;;;;;;0.00;0.00;;;16.40;66.50;;;;;;4979244;28;20042;-64
2022/07/06 07:23:32;;;;;;;0.00;0.00;;;16.50;65.20;;;;;;4990139;28;20062;-64
2022/07/06 07:25:57;;;;;;;0.00;0.00;;;16.60;65.30;;;;;;4977904;28;20081;-63
2022/07/06 07:28:23;;;;;;;0.00;0.00;;;16.60;63.90;;;;;;4988659;28;20518;-64
2022/07/06 07:30:50;;;;;;;0.00;0.00;;;16.50;65.20;;;;;;4980892;28;20122;-65
2022/07/06 07:33:15;;;;;;;0.00;0.00;;;16.60;64.70;;;;;;4989426;28;20043;-64
2022/07/06 07:35:41;;;;;;;0.00;0.00;;;16.50;64.90;;;;;;4987043;28;20097;-65
2022/07/06 07:38:06;;;;;;;0.00;0.00;;;16.50;65.30;;;;;;4994513;28;20108;-65
2022/07/06 07:40:33;;;;;;;0.00;0.00;;;16.50;66.10;;;;;;4979369;28;20912;-64
2022/07/06 07:42:58;;;;;;;0.00;0.00;;;16.60;66.80;;;;;;4986642;28;20092;-65
2022/07/06 07:45:24;;;;;;;0.00;0.00;;;16.70;66.50;;;;;;4988898;28;20407;-65
2022/07/06 07:47:50;;;;;;;0.00;0.00;;;16.80;65.10;;;;;;4992284;28;20043;-65
2022/07/06 07:50:15;;;;;;;0.00;0.00;;;16.90;65.30;;;;;;4991669;28;20137;-65
2022/07/06 07:52:41;;;;;;;0.00;0.00;;;17.00;65.00;;;;;;4990589;28;20080;-64
2022/07/06 07:55:07;;;;;;;0.00;0.00;;;17.10;66.10;;;;;;4992446;28;20834;-64
2022/07/06 07:57:33;;;;;;;0.00;0.00;;;17.10;65.60;;;;;;4988686;28;20089;-65
2022/07/06 07:59:58;;;;;;;0.00;0.00;;;17.10;65.50;;;;;;4991804;28;20039;-64
2022/07/06 08:02:24;;;;;;;0.00;0.00;;;17.10;65.20;;;;;;4990520;28;20038;-64
2022/07/06 08:04:49;;;;;;;0.00;0.00;;;17.20;66.50;;;;;;4991874;28;20042;-64
2022/07/06 08:07:15;;;;;;;0.00;0.00;;;17.20;65.70;;;;;;4991358;28;20074;-64
2022/07/06 08:09:41;;;;;;;0.15;0.15;;;17.20;62.90;;;;;;4988785;28;20881;-64
2022/07/06 08:12:07;;;;;;;0.10;0.10;;;17.20;63.70;;;;;;4995463;28;20046;-64
2022/07/06 08:14:32;;;;;;;0.00;0.00;;;17.20;61.90;;;;;;5011192;28;20503;-65
2022/07/06 08:16:58;;;;;;;0.10;0.10;;;17.30;61.40;;;;;;4998741;28;20105;-64
2022/07/06 08:19:23;;;;;;;0.08;0.08;;;17.40;62.40;;;;;;5004871;28;20050;-64
2022/07/06 08:21:49;;;;;;;0.00;0.00;;;17.50;62.00;;;;;;5005576;28;20043;-64
2022/07/06 08:24:15;;;;;;;0.00;0.00;;;17.50;63.10;;;;;;4998268;28;20038;-64
2022/07/06 08:26:40;;;;;;;0.00;0.00;;;17.50;63.60;;;;;;4991132;28;20042;-65
2022/07/06 08:29:06;;;;;;;0.00;0.00;;;17.40;64.20;;;;;;4985739;28;20038;-65
2022/07/06 08:31:33;;;;;;;0.00;0.00;;;17.40;62.70;;;;;;4989882;28;20043;-65
2022/07/06 08:33:59;;;;;;;0.00;0.00;;;17.40;62.40;;;;;;4984521;28;20550;-65
2022/07/06 08:36:25;;;;;;;0.00;0.00;;;17.30;62.90;;;;;;4989875;28;20042;-65
2022/07/06 08:38:50;;;;;;;0.00;0.00;;;17.20;64.20;;;;;;4992626;28;20487;-64
2022/07/06 08:41:17;;;;;;;0.00;0.00;;;17.10;65.30;;;;;;4983202;28;20043;-64
2022/07/06 08:43:43;;;;;;;0.00;0.00;;;17.10;66.00;;;;;;4988576;28;20046;-65
2022/07/06 08:46:09;;;;;;;0.00;0.00;;;17.10;66.20;;;;;;4995184;28;20096;-64
2022/07/06 08:48:37;;;;;;;0.00;0.00;;;17.10;66.70;;;;;;5007304;28;20121;-65
2022/07/06 08:51:04;;;;;;;0.00;0.00;;;17.30;66.30;;;;;;5003784;28;20061;-64
2022/07/06 08:53:29;;;;;;;0.00;0.00;;;17.40;64.70;;;;;;4983224;28;20046;-64
2022/07/06 08:55:55;;;;;;;0.00;0.00;;;17.50;65.30;;;;;;5005947;28;20152;-65
2022/07/06 08:58:24;;;;;;;0.00;0.00;;;17.40;63.00;;;;;;4991159;28;20507;-65
2022/07/06 09:00:50;;;;;;;0.00;0.00;;;17.30;63.60;;;;;;4988323;28;20054;-64
2022/07/06 09:03:16;;;;;;;0.00;0.00;;;17.10;63.60;;;;;;4979956;28;20122;-64
2022/07/06 09:05:45;;;;;;;0.00;0.00;;;17.10;65.10;;;;;;4975078;28;20158;-64
2022/07/06 09:08:11;;;;;;;0.00;0.00;;;17.10;65.20;;;;;;4997597;28;20049;-64
2022/07/06 09:10:37;;;;;;;0.00;0.00;;;17.20;65.10;;;;;;4987429;28;20109;-66
2022/07/06 09:13:04;;;;;;;0.00;0.00;;;17.30;64.00;;;;;;4987819;28;20039;-64
2022/07/06 09:15:31;;;;;;;0.25;0.25;;;17.50;64.10;;;;;;4986060;28;20050;-64
2022/07/06 09:17:57;;;;;;;0.00;0.00;;;17.60;63.90;;;;;;4986027;28;20105;-64
2022/07/06 09:20:23;;;;;;;0.00;0.00;;;17.60;63.50;;;;;;4981691;28;20038;-64
2022/07/06 09:22:50;;;;;;;10.43;1.05;;;17.60;63.80;;;;;;4990533;28;20060;-64
2022/07/06 09:25:16;;;;;;;0.00;0.00;;;17.80;65.90;;;;;;4991266;28;20091;-64
2022/07/06 09:27:47;;;;;;;0.00;0.00;;;17.90;65.20;;;;;;4990150;28;20479;-64
2022/07/06 09:30:14;;;;;;;0.00;0.00;;;18.00;64.00;;;;;;4985380;28;20046;-64
2022/07/06 09:32:42;;;;;;;0.00;0.00;;;18.10;62.10;;;;;;4982491;28;20041;-64
2022/07/06 09:35:18;;;;;;;0.00;0.00;;;18.10;60.80;;;;;;4983771;28;20101;-65
2022/07/06 09:37:47;;;;;;;0.00;0.00;;;18.10;60.80;;;;;;4990673;28;20113;-64
2022/07/06 09:40:18;;;;;;;0.00;0.00;;;18.20;62.10;;;;;;4988852;28;20047;-65
2022/07/06 09:42:44;;;;;;;0.00;0.00;;;18.10;61.00;;;;;;4989273;28;20137;-65
2022/07/06 09:45:09;;;;;;;0.00;0.00;;;18.20;62.50;;;;;;4989589;28;20526;-65
2022/07/06 09:47:37;;;;;;;0.00;0.00;;;18.10;60.60;;;;;;4988760;28;20054;-65
2022/07/06 09:50:05;;;;;;;0.00;0.00;;;18.20;60.90;;;;;;4981201;28;20057;-64
2022/07/06 09:52:34;;;;;;;0.00;0.00;;;18.20;60.80;;;;;;4978567;28;20861;-64
2022/07/06 09:55:00;;;;;;;0.00;0.00;;;18.20;58.40;;;;;;4988650;28;20074;-65
2022/07/06 09:57:25;;;;;;;0.00;0.00;;;18.30;59.10;;;;;;4986513;28;20072;-66
2022/07/06 09:59:52;;;;;;;0.00;0.00;;;18.30;57.60;;;;;;4987700;28;20133;-65
2022/07/06 10:02:20;;;;;;;0.00;0.00;;;18.30;59.50;;;;;;4981687;28;20053;-65
2022/07/06 10:04:46;;;;;;;0.00;0.00;;;18.30;60.30;;;;;;4979378;28;20039;-64
2022/07/06 10:07:12;;;;;;;0.00;0.00;;;18.30;60.90;;;;;;4984527;28;20042;-64
2022/07/06 10:09:38;;;;;;;0.00;0.00;;;18.30;60.10;;;;;;4978900;28;20551;-64
2022/07/06 10:12:10;;;;;;;0.00;0.00;;;18.30;60.60;;;;;;4976621;28;20125;-64
2022/07/06 10:14:36;;;;;;;0.00;0.00;;;18.30;60.40;;;;;;4986301;28;20046;-64
2022/07/06 10:17:06;;;;;;;0.00;0.00;;;18.30;59.20;;;;;;4984401;28;20047;-65
2022/07/06 10:19:32;;;;;;;0.00;0.00;;;18.40;59.10;;;;;;4982074;28;20064;-65
2022/07/06 10:22:00;;;;;;;0.30;0.30;;;18.50;60.10;;;;;;4983751;28;20047;-65
2022/07/06 10:24:28;;;;;;;0.00;0.00;;;18.60;60.20;;;;;;4989397;28;20415;-66
2022/07/06 10:26:55;;;;;;;0.82;0.82;;;18.60;60.50;;;;;;4986784;28;20063;-66
2022/07/06 10:29:21;;;;;;;0.00;0.00;;;18.60;60.80;;;;;;4980179;28;20235;-66
2022/07/06 10:31:48;;;;;;;0.00;0.00;;;18.60;58.80;;;;;;4985927;28;20054;-66
2022/07/06 10:34:18;;;;;;;0.00;0.00;;;18.60;59.80;;;;;;4986135;28;20053;-66
2022/07/06 10:36:48;;;;;;;0.00;0.00;;;18.70;60.40;;;;;;4969397;28;20050;-65
2022/07/06 10:41:58;;;;;;;0.00;0.00;;;19.00;58.40;;;;;;4977546;28;20042;-66
2022/07/06 10:44:26;;;;;;;0.00;0.00;;;19.00;60.70;;;;;;4983131;28;20054;-65
2022/07/06 10:46:57;;;;;;;0.00;0.00;;;19.00;60.90;;;;;;4994592;28;20494;-66
2022/07/06 10:49:24;;;;;;;0.00;0.00;;;18.90;60.30;;;;;;5007212;28;20115;-66
2022/07/06 10:51:50;;;;;;;0.00;0.00;;;18.90;60.30;;;;;;4991914;28;20069;-65
2022/07/06 10:54:18;;;;;;;0.00;0.00;;;19.00;60.30;;;;;;5008798;28;20061;-66
2022/07/06 10:56:45;;;;;;;0.00;0.00;;;19.00;59.40;;;;;;5009213;28;20405;-66
2022/07/06 10:59:21;;;;;;;0.00;0.00;;;19.10;59.40;;;;;;4983599;28;20471;-65
2022/07/06 11:02:16;;;;;;;0.08;0.08;;;19.20;60.10;;;;;;4969924;28;20050;-66
2022/07/06 11:04:46;;;;;;;0.00;0.00;;;19.20;59.50;;;;;;4971789;28;20061;-66
2022/07/06 11:07:14;;;;;;;0.00;0.00;;;19.20;57.40;;;;;;4978604;28;20049;-66
2022/07/06 11:09:47;;;;;;;0.00;0.00;;;19.20;59.00;;;;;;4998343;28;20089;-66
2022/07/06 11:12:20;;;;;;;0.00;0.00;;;19.20;59.30;;;;;;4976319;28;20055;-66
2022/07/06 11:14:47;;;;;;;0.10;0.10;;;19.30;59.00;;;;;;4986690;28;20097;-66
2022/07/06 11:17:13;;;;;;;0.00;0.00;;;19.30;57.80;;;;;;4997317;28;20038;-66
2022/07/06 11:19:49;;;;;;;0.00;0.00;;;19.30;57.20;;;;;;4989422;28;20057;-66
2022/07/06 11:22:16;;;;;;;0.00;0.00;;;19.40;56.30;;;;;;4986616;28;20038;-65
2022/07/06 11:24:41;;;;;;;0.00;0.00;;;19.40;57.50;;;;;;4984818;28;20102;-66
2022/07/06 11:27:08;;;;;;;0.00;0.00;;;19.40;58.90;;;;;;4987609;28;20058;-66
2022/07/06 11:29:35;;;;;;;0.00;0.00;;;19.40;57.20;;;;;;4989334;28;20120;-66
2022/07/06 11:32:03;;;;;;;0.00;0.00;;;19.40;56.80;;;;;;4988221;28;20074;-66
2022/07/06 11:34:31;;;;;;;0.00;0.00;;;19.50;57.10;;;;;;4989333;28;20085;-66
2022/07/06 11:36:59;;;;;;;0.00;0.00;;;19.60;57.40;;;;;;4989305;28;20476;-67
2022/07/06 11:39:32;;;;;;;0.10;0.10;;;19.60;56.80;;;;;;4989476;28;20050;-66
2022/07/06 11:42:00;;;;;;;0.00;0.00;;;19.70;56.20;;;;;;4971543;28;20530;-66
2022/07/06 11:44:26;;;;;;;0.00;0.00;;;19.90;54.80;;;;;;4969635;28;20833;-66
2022/07/06 11:46:54;;;;;;;0.00;0.00;;;20.00;53.60;;;;;;4970589;28;20509;-66
2022/07/06 11:49:20;;;;;;;0.00;0.00;;;20.00;54.00;;;;;;4969898;28;20134;-65
2022/07/06 11:51:47;;;;;;;0.00;0.00;;;20.10;53.10;;;;;;4969973;28;20141;-66
2022/07/06 11:54:20;;;;;;;0.00;0.00;;;20.10;52.90;;;;;;4974169;28;20053;-64
2022/07/06 11:56:55;;;;;;;0.00;0.00;;;20.20;54.60;;;;;;4984023;28;20490;-66
2022/07/06 11:59:26;;;;;;;0.00;0.00;;;20.40;55.20;;;;;;4984697;28;20038;-67
2022/07/06 12:02:05;;;;;;;0.00;0.00;;;20.40;52.40;;;;;;4987464;28;20502;-66
2022/07/06 12:04:33;;;;;;;0.00;0.00;;;20.40;52.60;;;;;;5002875;28;21159;-66
2022/07/06 12:07:11;;;;;;;0.00;0.00;;;20.40;51.80;;;;;;5006268;28;20046;-66
2022/07/06 12:09:38;;;;;;;0.00;0.00;;;20.10;52.20;;;;;;4991913;28;20031;-65
2022/07/06 12:12:05;;;;;;;0.00;0.00;;;20.20;51.30;;;;;;4992538;28;20057;-66
2022/07/06 12:14:32;;;;;;;0.00;0.00;;;20.10;52.70;;;;;;4977792;28;20105;-66
2022/07/06 12:17:06;;;;;;;0.00;0.00;;;20.10;54.40;;;;;;4972687;28;20051;-67
2022/07/06 12:19:33;;;;;;;0.08;0.08;;;20.20;52.20;;;;;;4980634;28;20680;-66
2022/07/06 12:22:01;;;;;;;0.00;0.00;;;20.30;52.00;;;;;;5003324;28;20131;-66
2022/07/06 12:24:30;;;;;;;0.00;0.00;;;20.20;52.60;;;;;;5011570;28;20170;-67
2022/07/06 12:26:56;;;;;;;0.00;0.00;;;20.10;52.70;;;;;;4989062;28;20039;-67
2022/07/06 12:29:22;;;;;;;0.00;0.00;;;20.10;53.20;;;;;;4988056;28;20395;-67
2022/07/06 12:31:56;;;;;;;0.00;0.00;;;20.20;54.20;;;;;;4990724;28;20384;-66
2022/07/06 12:34:35;;;;;;;0.10;0.10;;;20.00;53.20;;;;;;4986620;28;20065;-67
2022/07/06 12:37:07;;;;;;;0.00;0.00;;;20.00;53.00;;;;;;4987732;28;20459;-68
2022/07/06 12:39:41;;;;;;;0.00;0.00;;;20.00;53.60;;;;;;4990709;28;20074;-68
2022/07/06 12:42:08;;;;;;;0.00;0.00;;;20.10;54.30;;;;;;4993094;28;20117;-67
2022/07/06 12:44:43;;;;;;;0.00;0.00;;;20.20;53.20;;;;;;4991693;28;20810;-65
2022/07/06 12:47:09;;;;;;;0.00;0.00;;;20.30;52.70;;;;;;4991532;28;20089;-65
2022/07/06 12:49:38;;;;;;;0.00;0.00;;;20.20;52.70;;;;;;4990981;28;20073;-67
2022/07/06 12:52:07;;;;;;;0.03;0.03;;;20.40;52.80;;;;;;4991368;28;20125;-66